createdAt,value
2018-11-14T00:01:05.941Z,95.06
2018-11-14T00:03:34.171Z,95.19
2018-11-14T00:06:02.548Z,95.40
2018-11-14T00:08:30.776Z,95.66
2018-11-14T00:10:59.101Z,94.99
2018-11-14T00:13:27.480Z,95.00
2018-11-14T00:15:55.771Z,95.60
2018-11-14T00:18:24.043Z,95.21
2018-11-14T00:20:52.378Z,94.80
2018-11-14T00:23:20.595Z,95.23
2018-11-14T00:25:49.941Z,94.83
2018-11-14T00:28:18.776Z,94.53
2018-11-14T00:30:47.007Z,94.70
2018-11-14T00:33:15.722Z,94.52
2018-11-14T00:35:43.967Z,94.99
2018-11-14T00:38:12.113Z,94.84
2018-11-14T00:40:40.364Z,94.21
2018-11-14T00:43:08.626Z,94.87
2018-11-14T00:45:37.006Z,95.11
2018-11-14T00:48:05.555Z,95.31
2018-11-14T00:50:33.752Z,95.36
2018-11-14T00:53:02.019Z,94.66
2018-11-14T00:55:30.260Z,94.49
2018-11-14T00:57:58.457Z,94.06
2018-11-14T01:00:26.715Z,93.88
2018-11-14T01:02:55.271Z,94.79
2018-11-14T01:05:23.700Z,94.33
2018-11-14T01:07:51.915Z,93.72
2018-11-14T01:10:21.309Z,93.23
2018-11-14T01:12:50.126Z,93.31
2018-11-14T01:15:19.727Z,92.80
2018-11-14T01:17:47.946Z,92.92
2018-11-14T01:20:17.540Z,91.46
2018-11-14T01:22:46.368Z,91.97
2018-11-14T01:25:15.664Z,92.46
2018-11-14T01:27:44.439Z,92.33
2018-11-14T01:30:15.608Z,92.04
2018-11-14T01:32:44.709Z,92.42
2018-11-14T01:35:13.092Z,92.73
2018-11-14T01:37:41.806Z,93.14
2018-11-14T01:40:19.551Z,93.86
2018-11-14T01:42:48.804Z,93.99
2018-11-14T01:45:17.099Z,93.89
2018-11-14T01:47:45.290Z,93.93
2018-11-14T01:50:13.495Z,93.74
2018-11-14T01:52:41.697Z,94.10
2018-11-14T01:55:11.711Z,93.92
2018-11-14T01:57:39.904Z,94.13
2018-11-14T02:00:10.956Z,94.52
2018-11-14T02:02:39.270Z,94.95
2018-11-14T02:05:08.204Z,94.89
2018-11-14T02:07:36.683Z,95.09
2018-11-14T02:10:06.708Z,94.13
2018-11-14T02:12:34.907Z,94.17
2018-11-14T02:15:03.119Z,94.00
2018-11-14T02:17:31.319Z,94.20
2018-11-14T02:19:59.538Z,93.36
2018-11-14T02:22:27.735Z,92.86
2018-11-14T02:24:55.923Z,93.38
2018-11-14T02:27:24.121Z,92.20
2018-11-14T02:29:52.676Z,91.43
2018-11-14T02:32:20.874Z,91.38
2018-11-14T02:34:49.084Z,92.56
2018-11-14T02:37:17.299Z,92.51
2018-11-14T02:39:45.489Z,93.75
2018-11-14T02:42:13.660Z,93.88
2018-11-14T02:44:42.199Z,93.47
2018-11-14T02:47:10.395Z,94.28
2018-11-14T02:49:38.711Z,94.26
2018-11-14T02:52:06.912Z,94.28
2018-11-14T02:54:35.110Z,94.78
2018-11-14T02:57:03.324Z,94.28
2018-11-14T02:59:32.091Z,94.17
2018-11-14T03:02:00.279Z,94.50
2018-11-14T03:04:28.481Z,95.05
2018-11-14T03:06:56.655Z,94.60
2018-11-14T03:09:24.876Z,95.12
2018-11-14T03:11:53.162Z,94.23
2018-11-14T03:14:21.463Z,94.20
2018-11-14T03:16:49.807Z,94.36
2018-11-14T03:19:18.023Z,93.73
2018-11-14T03:21:46.283Z,93.65
2018-11-14T03:24:14.467Z,93.82
2018-11-14T03:26:42.791Z,93.87
2018-11-14T03:29:11.276Z,93.98
2018-11-14T03:31:39.475Z,94.08
2018-11-14T03:34:07.848Z,94.00
2018-11-14T03:36:36.030Z,93.59
2018-11-14T03:39:06.369Z,93.99
2018-11-14T03:41:34.576Z,94.31
2018-11-14T03:44:03.069Z,94.03
2018-11-14T03:46:31.282Z,95.49
2018-11-14T03:48:59.479Z,94.47
2018-11-14T03:51:27.735Z,95.17
2018-11-14T03:53:55.951Z,95.81
2018-11-14T03:56:24.143Z,96.61
2018-11-14T03:58:52.343Z,96.63
2018-11-14T04:01:20.587Z,96.57
2018-11-14T04:03:48.781Z,96.57
2018-11-14T04:06:17.364Z,96.03
2018-11-14T04:08:45.600Z,96.62
2018-11-14T04:11:13.833Z,96.61
2018-11-14T04:13:42.032Z,96.52
2018-11-14T04:16:10.260Z,97.20
2018-11-14T04:18:38.474Z,96.87
2018-11-14T04:21:06.816Z,96.71
2018-11-14T04:23:39.447Z,96.60
2018-11-14T04:26:07.635Z,96.76
2018-11-14T04:28:35.870Z,97.68
2018-11-14T04:31:04.147Z,97.16
2018-11-14T04:33:32.336Z,97.83
2018-11-14T04:36:00.567Z,97.44
2018-11-14T04:38:28.863Z,97.71
2018-11-14T04:40:57.066Z,98.17
2018-11-14T04:43:25.307Z,97.54
2018-11-14T04:45:53.957Z,97.68
2018-11-14T04:48:22.187Z,97.58
2018-11-14T04:50:50.485Z,97.74
2018-11-14T04:53:18.683Z,96.95
2018-11-14T04:55:46.880Z,96.90
2018-11-14T04:58:15.080Z,97.18
2018-11-14T05:00:43.821Z,96.61
2018-11-14T05:03:12.063Z,97.14
2018-11-14T05:05:40.247Z,97.37
2018-11-14T05:08:08.480Z,97.47
2018-11-14T05:10:36.755Z,96.52
2018-11-14T05:13:05.829Z,97.03
2018-11-14T05:15:34.030Z,96.75
2018-11-14T05:18:02.227Z,96.90
2018-11-14T05:20:30.431Z,97.60
2018-11-14T05:22:58.675Z,96.79
2018-11-14T05:25:26.914Z,97.30
2018-11-14T05:27:55.187Z,97.00
2018-11-14T05:30:24.065Z,97.20
2018-11-14T05:32:52.739Z,97.13
2018-11-14T05:35:20.955Z,97.17
2018-11-14T05:37:50.559Z,96.35
2018-11-14T05:40:20.187Z,96.23
2018-11-14T05:42:49.019Z,96.53
2018-11-14T05:45:18.884Z,96.35
2018-11-14T05:47:47.140Z,95.80
2018-11-14T05:50:17.617Z,95.31
2018-11-14T05:52:45.859Z,95.52
2018-11-14T05:55:14.698Z,95.12
2018-11-14T05:57:42.906Z,94.87
2018-11-14T06:00:15.598Z,94.54
2018-11-14T06:02:44.264Z,94.22
2018-11-14T06:05:12.559Z,94.43
2018-11-14T06:07:40.825Z,94.77
2018-11-14T06:10:10.699Z,94.93
2018-11-14T06:12:39.467Z,94.39
2018-11-14T06:15:10.263Z,95.20
2018-11-14T06:17:38.578Z,94.98
2018-11-14T06:20:08.564Z,95.54
2018-11-14T06:22:36.759Z,95.26
2018-11-14T06:25:15.791Z,95.26
2018-11-14T06:27:44.500Z,94.88
2018-11-14T06:30:12.772Z,95.86
2018-11-14T06:32:41.086Z,95.92
2018-11-14T06:35:09.268Z,95.98
2018-11-14T06:37:37.618Z,96.21
2018-11-14T06:40:07.535Z,96.14
2018-11-14T06:42:35.711Z,95.88
2018-11-14T06:45:04.032Z,96.23
2018-11-14T06:47:33.542Z,95.62
2018-11-14T06:50:01.801Z,95.56
2018-11-14T06:52:29.931Z,95.86
2018-11-14T06:54:58.119Z,95.53
2018-11-14T06:57:26.303Z,96.20
2018-11-14T06:59:54.643Z,96.03
2018-11-14T07:02:27.318Z,96.24
2018-11-14T07:04:50.982Z,95.75
2018-11-14T07:07:19.394Z,96.85
2018-11-14T07:09:47.590Z,96.56
2018-11-14T07:12:15.855Z,96.55
2018-11-14T07:14:44.103Z,96.22
2018-11-14T07:17:12.307Z,96.68
2018-11-14T07:19:40.494Z,97.09
2018-11-14T07:22:08.697Z,96.84
2018-11-14T07:24:36.896Z,96.30
2018-11-14T07:27:05.432Z,96.03
2018-11-14T07:29:33.702Z,95.95
2018-11-14T07:32:01.939Z,96.08
2018-11-14T07:34:30.940Z,95.65
2018-11-14T07:36:59.120Z,95.44
2018-11-14T07:39:27.807Z,94.53
2018-11-14T07:41:56.024Z,94.80
2018-11-14T07:44:24.218Z,94.54
2018-11-14T07:46:52.996Z,94.74
2018-11-14T07:49:21.599Z,94.90
2018-11-14T07:51:49.787Z,94.13
2018-11-14T07:54:18.068Z,94.27
2018-11-14T07:56:46.291Z,93.45
2018-11-14T07:59:14.480Z,93.58
2018-11-14T08:01:42.680Z,93.23
2018-11-14T08:04:12.071Z,94.00
2018-11-14T08:06:40.258Z,94.53
2018-11-14T08:09:08.456Z,95.55
2018-11-14T08:11:36.643Z,96.22
2018-11-14T08:14:04.826Z,96.04
2018-11-14T08:16:33.037Z,95.72
2018-11-14T08:19:01.314Z,96.55
2018-11-14T08:21:29.427Z,96.03
2018-11-14T08:23:57.658Z,95.80
2018-11-14T08:26:25.810Z,96.14
2018-11-14T08:28:53.997Z,95.67
2018-11-14T08:31:22.177Z,94.85
2018-11-14T08:33:50.363Z,95.38
2018-11-14T08:36:18.740Z,94.92
2018-11-14T08:38:46.959Z,94.92
2018-11-14T08:41:15.078Z,94.46
2018-11-14T08:43:43.239Z,94.18
2018-11-14T08:46:11.494Z,95.07
2018-11-14T08:48:39.687Z,93.55
2018-11-14T08:51:08.071Z,93.01
2018-11-14T08:53:36.227Z,93.40
2018-11-14T08:56:05.575Z,92.93
2018-11-14T08:58:33.738Z,92.25
2018-11-14T09:01:01.896Z,91.30
2018-11-14T09:03:30.086Z,90.54
2018-11-14T09:05:58.250Z,90.83
2018-11-14T09:08:26.415Z,90.79
2018-11-14T09:10:54.595Z,91.89
2018-11-14T09:13:22.731Z,92.33
2018-11-14T09:15:50.900Z,92.05
2018-11-14T09:18:19.156Z,91.78
2018-11-14T09:20:47.280Z,90.84
2018-11-14T09:23:15.437Z,90.35
2018-11-14T09:25:43.595Z,91.22
2018-11-14T09:28:12.716Z,90.16
2018-11-14T09:30:41.704Z,90.52
2018-11-14T09:33:09.941Z,90.24
2018-11-14T09:35:38.999Z,89.14
2018-11-14T09:38:07.157Z,88.84
2018-11-14T09:40:36.318Z,88.77
2018-11-14T09:43:04.472Z,87.88
2018-11-14T09:45:32.614Z,87.60
2018-11-14T09:48:00.935Z,87.14
2018-11-14T09:50:30.356Z,86.90
2018-11-14T09:53:00.051Z,86.93
2018-11-14T09:55:29.212Z,88.46
2018-11-14T09:57:57.438Z,88.10
2018-11-14T10:00:26.883Z,87.20
2018-11-14T10:02:59.007Z,86.74
2018-11-14T10:05:27.291Z,86.27
2018-11-14T10:07:55.447Z,86.34
2018-11-14T10:10:23.980Z,86.65
2018-11-14T10:12:52.226Z,86.81
2018-11-14T10:15:21.640Z,87.74
2018-11-14T10:17:50.034Z,86.82
2018-11-14T10:20:19.509Z,87.17
2018-11-14T10:22:47.700Z,87.36
2018-11-14T10:25:16.383Z,87.65
2018-11-14T10:27:45.265Z,89.79
2018-11-14T10:30:15.779Z,89.13
2018-11-14T10:32:44.677Z,89.17
2018-11-14T10:35:12.891Z,88.48
2018-11-14T10:37:41.375Z,88.12
2018-11-14T10:40:12.466Z,87.47
2018-11-14T10:42:41.019Z,86.86
2018-11-14T10:45:10.795Z,86.78
2018-11-14T10:47:38.972Z,85.32
2018-11-14T10:50:09.162Z,85.82
2018-11-14T10:52:37.515Z,86.83
2018-11-14T10:55:06.506Z,86.40
2018-11-14T10:57:34.904Z,87.57
2018-11-14T11:00:03.297Z,86.28
2018-11-14T11:02:36.898Z,84.50
2018-11-14T11:06:12.186Z,83.87
2018-11-14T11:08:46.009Z,84.74
2018-11-14T11:11:19.364Z,85.80
2018-11-14T11:14:21.004Z,85.68
2018-11-14T11:16:54.386Z,86.26
2018-11-14T11:19:24.930Z,85.94
2018-11-14T11:21:53.082Z,87.98
2018-11-14T11:24:22.404Z,88.26
2018-11-14T11:26:50.564Z,88.47
2018-11-14T11:29:18.731Z,88.71
2018-11-14T11:31:46.975Z,89.50
2018-11-14T11:34:15.130Z,89.44
2018-11-14T11:36:43.296Z,89.19
2018-11-14T11:39:13.590Z,89.09
2018-11-14T11:41:42.366Z,88.80
2018-11-14T11:44:10.950Z,87.03
2018-11-14T11:46:40.044Z,86.72
2018-11-14T11:49:08.428Z,85.95
2018-11-14T11:51:36.614Z,84.76
2018-11-14T11:54:05.123Z,83.77
2018-11-14T11:56:33.286Z,84.37
2018-11-14T11:59:01.837Z,83.13
2018-11-14T12:01:30.046Z,84.55
2018-11-14T12:03:58.232Z,85.50
2018-11-14T12:06:26.477Z,86.36
2018-11-14T12:08:54.557Z,84.78
2018-11-14T12:11:22.751Z,83.85
2018-11-14T12:13:51.343Z,83.06
2018-11-14T12:16:19.432Z,82.00
2018-11-14T12:18:47.591Z,80.74
2018-11-14T12:21:15.767Z,80.71
2018-11-14T12:23:43.987Z,83.56
2018-11-14T12:26:12.098Z,82.13
2018-11-14T12:28:40.744Z,82.46
2018-11-14T12:31:09.013Z,82.19
2018-11-14T12:33:37.035Z,81.50
2018-11-14T12:36:05.508Z,81.16
2018-11-14T12:38:33.680Z,79.25
2018-11-14T12:41:01.820Z,79.60
2018-11-14T12:43:30.214Z,80.83
2018-11-14T12:45:59.075Z,83.36
2018-11-14T12:48:27.228Z,84.58
2018-11-14T12:50:55.448Z,84.48
2018-11-14T12:53:24.293Z,83.90
2018-11-14T12:55:52.455Z,83.24
2018-11-14T12:58:20.637Z,84.26
2018-11-14T13:00:48.835Z,85.71
2018-11-14T13:03:16.986Z,86.41
2018-11-14T13:05:45.179Z,86.77
2018-11-14T13:08:13.386Z,87.47
2018-11-14T13:10:41.543Z,86.91
2018-11-14T13:13:09.710Z,86.84
2018-11-14T13:15:37.876Z,86.01
2018-11-14T13:18:06.035Z,84.93
2018-11-14T13:20:34.208Z,84.08
2018-11-14T13:23:02.398Z,83.85
2018-11-14T13:25:32.233Z,83.87
2018-11-14T13:28:00.423Z,82.52
2018-11-14T13:30:28.526Z,83.99
2018-11-14T13:32:56.691Z,85.96
2018-11-14T13:35:25.406Z,86.73
2018-11-14T13:37:53.581Z,87.47
2018-11-14T13:40:21.743Z,87.95
2018-11-14T13:42:49.900Z,86.50
2018-11-14T13:45:18.722Z,86.93
2018-11-14T13:47:46.894Z,86.49
2018-11-14T13:50:17.227Z,87.78
2018-11-14T13:52:45.480Z,87.69
2018-11-14T13:55:15.871Z,87.74
2018-11-14T13:57:45.215Z,87.15
2018-11-14T14:00:14.624Z,85.97
2018-11-14T14:02:43.694Z,86.28
2018-11-14T14:05:13.464Z,85.93
2018-11-14T14:07:41.610Z,84.60
2018-11-14T14:10:11.026Z,85.24
2018-11-14T14:12:40.295Z,85.22
2018-11-14T14:15:11.440Z,86.44
2018-11-14T14:17:40.776Z,86.91
2018-11-14T14:20:11.540Z,86.17
2018-11-14T14:22:39.907Z,85.29
2018-11-14T14:25:10.779Z,85.55
2018-11-14T14:27:39.068Z,86.64
2018-11-14T14:30:10.400Z,87.38
2018-11-14T14:32:39.634Z,88.23
2018-11-14T14:35:08.995Z,87.14
2018-11-14T14:37:37.146Z,86.48
2018-11-14T14:40:07.666Z,86.54
2018-11-14T14:42:35.796Z,86.52
2018-11-14T14:45:04.864Z,86.51
2018-11-14T14:47:33.315Z,86.14
2018-11-14T14:50:01.905Z,87.39
2018-11-14T14:52:30.195Z,86.90
2018-11-14T14:54:58.734Z,87.50
2018-11-14T14:57:27.432Z,87.17
2018-11-14T14:59:56.330Z,87.64
2018-11-14T15:02:24.497Z,87.69
2018-11-14T15:04:52.613Z,87.84
2018-11-14T15:07:20.829Z,88.22
2018-11-14T15:09:49.114Z,88.32
2018-11-14T15:12:17.278Z,86.95
2018-11-14T15:14:45.411Z,86.05
2018-11-14T15:17:14.415Z,87.24
2018-11-14T15:19:42.552Z,88.33
2018-11-14T15:22:10.684Z,88.01
2018-11-14T15:24:38.867Z,89.00
2018-11-14T15:27:07.024Z,88.92
2018-11-14T15:29:35.196Z,89.69
2018-11-14T15:32:03.299Z,88.89
2018-11-14T15:34:32.186Z,88.95
2018-11-14T15:37:00.380Z,89.53
2018-11-14T15:39:28.510Z,91.27
2018-11-14T15:41:56.671Z,91.47
2018-11-14T15:44:24.843Z,91.19
2018-11-14T15:46:53.443Z,90.69
2018-11-14T15:49:22.654Z,90.43
2018-11-14T15:51:50.810Z,90.18
2018-11-14T15:54:18.986Z,91.18
2018-11-14T15:56:47.100Z,90.93
2018-11-14T15:59:15.270Z,91.06
2018-11-14T16:01:44.579Z,90.76
2018-11-14T16:04:12.768Z,91.10
2018-11-14T16:06:40.943Z,90.30
2018-11-14T16:09:11.095Z,89.60
2018-11-14T16:11:39.278Z,89.86
2018-11-14T16:14:07.425Z,90.29
2018-11-14T16:16:35.752Z,90.19
2018-11-14T16:19:04.688Z,89.45
2018-11-14T16:21:32.814Z,89.32
2018-11-14T16:24:01.004Z,89.14
2018-11-14T16:26:29.290Z,89.83
2018-11-14T16:28:57.441Z,89.90
2018-11-14T16:31:25.610Z,90.21
2018-11-14T16:33:53.776Z,89.75
2018-11-14T16:36:21.893Z,89.04
2018-11-14T16:38:50.047Z,90.71
2018-11-14T16:41:18.232Z,91.27
2018-11-14T16:43:46.413Z,92.22
2018-11-14T16:46:14.538Z,92.68
2018-11-14T16:48:42.710Z,93.46
2018-11-14T16:51:10.968Z,92.91
2018-11-14T16:53:39.103Z,92.49
2018-11-14T16:56:07.270Z,93.11
2018-11-14T16:58:35.418Z,93.21
2018-11-14T17:01:03.552Z,93.38
2018-11-14T17:03:32.370Z,93.66
2018-11-14T17:06:00.445Z,93.01
2018-11-14T17:08:28.567Z,91.95
2018-11-14T17:10:56.698Z,91.94
2018-11-14T17:13:24.840Z,91.28
2018-11-14T17:15:53.286Z,90.84
2018-11-14T17:18:21.425Z,91.47
2018-11-14T17:20:49.564Z,92.98
2018-11-14T17:23:19.233Z,93.59
2018-11-14T17:25:47.351Z,92.98
2018-11-14T17:28:15.494Z,92.87
2018-11-14T17:30:44.025Z,93.17
2018-11-14T17:33:12.200Z,93.77
2018-11-14T17:35:40.356Z,93.86
2018-11-14T17:38:08.972Z,94.81
2018-11-14T17:40:37.107Z,94.04
2018-11-14T17:43:05.537Z,94.42
2018-11-14T17:45:33.770Z,94.95
2018-11-14T17:48:02.008Z,94.94
2018-11-14T17:50:32.376Z,94.61
2018-11-14T17:53:01.759Z,94.09
2018-11-14T17:55:30.451Z,93.55
2018-11-14T17:57:58.846Z,94.03
2018-11-14T18:00:28.190Z,93.96
2018-11-14T18:02:57.851Z,93.95
2018-11-14T18:05:27.172Z,94.55
2018-11-14T18:07:55.687Z,94.46
2018-11-14T18:10:26.316Z,94.17
2018-11-14T18:12:56.220Z,93.70
2018-11-14T18:15:25.805Z,93.12
2018-11-14T18:17:54.648Z,92.73
2018-11-14T18:20:24.340Z,92.45
2018-11-14T18:22:52.914Z,91.89
2018-11-14T18:25:21.084Z,91.69
2018-11-14T18:27:49.226Z,92.03
2018-11-14T18:30:20.859Z,91.40
2018-11-14T18:32:49.418Z,90.15
2018-11-14T18:35:18.598Z,90.50
2018-11-14T18:37:47.482Z,89.93
2018-11-14T18:40:17.009Z,89.79
2018-11-14T18:42:45.267Z,90.13
2018-11-14T18:45:18.856Z,89.91
2018-11-14T18:47:47.620Z,89.40
2018-11-14T18:50:16.660Z,89.09
2018-11-14T18:52:45.680Z,89.68
2018-11-14T18:55:15.254Z,89.76
2018-11-14T18:57:44.623Z,89.98
2018-11-14T19:00:15.346Z,89.42
2018-11-14T19:02:43.619Z,89.65
2018-11-14T19:05:12.283Z,89.40
2018-11-14T19:07:40.742Z,89.48
2018-11-14T19:10:10.493Z,89.92
2018-11-14T19:12:40.182Z,89.95
2018-11-14T19:15:15.941Z,90.17
2018-11-14T19:17:44.161Z,91.36
2018-11-14T19:20:13.982Z,91.75
2018-11-14T19:22:42.468Z,92.80
2018-11-14T19:25:12.896Z,94.63
2018-11-14T19:27:41.375Z,94.78
2018-11-14T19:30:13.963Z,95.18
2018-11-14T19:32:44.131Z,95.98
2018-11-14T19:35:12.999Z,96.20
2018-11-14T19:37:42.366Z,96.00
2018-11-14T19:40:14.420Z,96.60
2018-11-14T19:42:43.324Z,96.08
2018-11-14T19:45:13.815Z,96.31
2018-11-14T19:47:42.756Z,96.47
2018-11-14T19:50:12.646Z,96.83
2018-11-14T19:52:42.047Z,96.68
2018-11-14T19:55:11.745Z,96.62
2018-11-14T19:57:40.547Z,96.57
2018-11-14T20:00:11.585Z,97.05
2018-11-14T20:02:40.503Z,97.04
2018-11-14T20:05:10.627Z,96.63
2018-11-14T20:07:39.703Z,96.38
2018-11-14T20:10:10.453Z,96.42
2018-11-14T20:12:38.661Z,96.45
2018-11-14T20:15:08.580Z,96.20
2018-11-14T20:17:36.813Z,96.57
2018-11-14T20:20:07.183Z,96.57
2018-11-14T20:22:35.728Z,96.46
2018-11-14T20:25:04.163Z,96.32
2018-11-14T20:27:32.355Z,95.56
2018-11-14T20:30:00.957Z,96.07
2018-11-14T20:32:29.156Z,95.64
2018-11-14T20:34:58.086Z,95.95
2018-11-14T20:37:27.606Z,96.06
2018-11-14T20:39:55.739Z,96.38
2018-11-14T20:42:23.999Z,96.33
2018-11-14T20:44:52.224Z,95.96
2018-11-14T20:47:20.426Z,96.09
2018-11-14T20:49:48.698Z,96.02
2018-11-14T20:52:17.190Z,96.24
2018-11-14T20:54:45.412Z,96.15
2018-11-14T20:57:13.616Z,95.99
2018-11-14T20:59:42.273Z,95.82
2018-11-14T21:02:10.500Z,95.72
2018-11-14T21:04:38.691Z,96.31
2018-11-14T21:07:06.986Z,96.03
2018-11-14T21:09:35.494Z,96.18
2018-11-14T21:12:03.723Z,96.03
2018-11-14T21:14:32.010Z,96.41
2018-11-14T21:17:00.228Z,96.06
2018-11-14T21:19:28.426Z,96.98
2018-11-14T21:21:56.623Z,96.19
2018-11-14T21:24:24.847Z,96.00
2018-11-14T21:26:53.808Z,95.77
2018-11-14T21:29:22.024Z,96.40
2018-11-14T21:31:50.217Z,96.36
2018-11-14T21:34:18.458Z,95.88
2018-11-14T21:36:46.656Z,95.85
2018-11-14T21:39:15.271Z,95.61
2018-11-14T21:41:45.170Z,96.21
2018-11-14T21:44:14.530Z,95.83
2018-11-14T21:46:42.768Z,96.07
2018-11-14T21:49:16.913Z,96.13
2018-11-14T21:51:45.108Z,96.42
2018-11-14T21:54:13.493Z,96.44
2018-11-14T21:56:41.703Z,96.16
2018-11-14T21:59:09.900Z,96.14
2018-11-14T22:01:38.143Z,96.34
2018-11-14T22:04:06.507Z,96.29
2018-11-14T22:06:34.707Z,96.46
2018-11-14T22:09:02.996Z,96.75
2018-11-14T22:11:31.203Z,96.54
2018-11-14T22:13:59.500Z,96.19
2018-11-14T22:16:27.703Z,96.34
2018-11-14T22:18:56.055Z,96.00
2018-11-14T22:21:24.250Z,96.55
2018-11-14T22:23:52.504Z,96.03
2018-11-14T22:26:20.699Z,96.17
2018-11-14T22:28:48.915Z,96.12
2018-11-14T22:31:17.123Z,95.92
2018-11-14T22:33:45.338Z,96.03
2018-11-14T22:36:13.582Z,95.41
2018-11-14T22:38:41.786Z,95.79
2018-11-14T22:41:09.968Z,96.34
2018-11-14T22:43:38.206Z,97.11
2018-11-14T22:46:06.568Z,96.12
2018-11-14T22:48:34.851Z,96.22
2018-11-14T22:51:03.067Z,95.18
2018-11-14T22:53:31.248Z,95.66
2018-11-14T22:55:59.446Z,96.36
2018-11-14T22:58:27.634Z,96.85
2018-11-14T23:00:55.826Z,96.90
2018-11-14T23:03:24.095Z,96.87
2018-11-14T23:05:55.105Z,96.56
2018-11-14T23:08:23.545Z,97.20
2018-11-14T23:10:52.119Z,96.89
2018-11-14T23:13:20.385Z,96.80
2018-11-14T23:15:49.154Z,96.91
2018-11-14T23:18:17.527Z,96.82
2018-11-14T23:20:45.728Z,96.80
2018-11-14T23:23:13.982Z,96.62
2018-11-14T23:25:42.342Z,96.61
2018-11-14T23:28:10.666Z,97.00
2018-11-14T23:30:38.884Z,97.10
2018-11-14T23:33:07.072Z,97.06
2018-11-14T23:35:35.363Z,97.17
2018-11-14T23:38:04.738Z,96.42
2018-11-14T23:40:32.941Z,96.66
2018-11-14T23:43:01.297Z,97.56
2018-11-14T23:45:30.182Z,96.64
2018-11-14T23:47:58.519Z,96.93
2018-11-14T23:52:21.242Z,97.44
2018-11-14T23:54:49.589Z,97.05
2018-11-14T23:57:17.778Z,97.19
2018-11-14T23:59:46.012Z,97.06
